Kota Waris — S6RJ — position and weather

sailwx.info

Track history (hours):
 
Tides and Currents Weather Stations Pressure Air Temp Water Temp Dewpoint Dewpoint Depression Visibility Wind Speed Wind Dir Waves Ship Positions

Kota Waris

Last reported at 2015-Feb-28 14:33 UTC. Time now 2015-Mar-03 20:21 UTC.
Position N 01°16' E 104°09'.

Length 185 m; draft 8.8 m.

Type: Ship (hazmat cat A). MMSI: 564482000.

Date/timePositionNaut miles runAvg speedWind from/ knotsBaromVisibWave heightAir tempDewpointWater temp
2015-Feb-28 14:33N 01°16' E 104°09'1514.5
2015-Feb-28 13:32N 01°13' E 103°55'7 6.7
2015-Feb-28 12:32N 01°13' E 103°48'5 4.8
2015-Feb-28 11:32N 01°17' E 103°46'0 0.0
2015-Feb-28 00:17N 01°17' E 103°46'0 0.0
2015-Feb-27 22:23N 01°17' E 103°46'0 0.0
2015-Feb-27 21:32N 01°17' E 103°46'0 0.0
2015-Feb-27 20:20N 01°17' E 103°46'0 0.0
2015-Feb-27 19:32N 01°17' E 103°46'0 0.0
2015-Feb-27 17:23N 01°17' E 103°46'0 0.0
2015-Feb-27 14:11N 01°17' E 103°46'0 0.0
2015-Feb-27 13:32N 01°17' E 103°46'0 0.0
2015-Feb-27 12:14N 01°17' E 103°46'3 0.2
2015-Feb-26 19:25N 01°14' E 103°48'2 0.5
2015-Feb-26 15:32N 01°13' E 103°49'7 6.7
2015-Feb-26 14:33N 01°14' E 103°55'5 5.1
2015-Feb-26 13:32N 01°16' E 104°00'7 6.9
2015-Feb-26 12:33N 01°16' E 104°07'  
2015-Feb-23 23:33N 16°07' E 108°13'0 0.3
2015-Feb-23 22:32N 16°07' E 108°13'0 0.0
2015-Feb-23 21:32N 16°07' E 108°13'0 0.0
2015-Feb-23 20:32N 16°07' E 108°13'0 0.0
2015-Feb-23 19:32N 16°07' E 108°13'0 0.0
2015-Feb-23 18:29N 16°07' E 108°13'2 2.1
2015-Feb-23 17:33N 16°09' E 108°12'2 1.6
2015-Feb-23 16:32N 16°10' E 108°12'0 0.0
2015-Feb-23 15:32N 16°10' E 108°12'0 0.0
2015-Feb-23 14:32N 16°10' E 108°12'0 0.0
2015-Feb-23 13:32N 16°10' E 108°12'1 1.0
2015-Feb-23 12:33N 16°11' E 108°12'12 9.9
2015-Feb-23 11:22N 16°20' E 108°21'1012.8
2015-Feb-23 10:33N 16°27' E 108°28'  
2015-Feb-20 18:21N 20°11' E 110°23'8 9.9
2015-Feb-20 17:33N 20°10' E 110°14'13812.2
2015-Feb-20 06:17N 21°36' E 108°20'0 0.0
2015-Feb-19 18:32N 21°36' E 108°20'  
Track history (hours):
 
Tides and Currents Weather Stations Pressure Air Temp Water Temp Dewpoint Dewpoint Depression Visibility Wind Speed Wind Dir Waves Ship Positions

Kota Waris

Last reported at 2015-Feb-28 14:33 UTC. Time now 2015-Mar-03 20:21 UTC.
Position N 01°16' E 104°09'.

Length 185 m; draft 8.8 m.

Type: Ship (hazmat cat A). MMSI: 564482000.

Date/timePositionNaut miles runAvg speedWind from/ knotsBaromVisibWave heightAir tempDewpointWater temp
2015-Feb-28 14:33N 01°16' E 104°09'1514.5
2015-Feb-28 13:32N 01°13' E 103°55'7 6.7
2015-Feb-28 12:32N 01°13' E 103°48'5 4.8
2015-Feb-28 11:32N 01°17' E 103°46'0 0.0
2015-Feb-28 00:17N 01°17' E 103°46'0 0.0
2015-Feb-27 22:23N 01°17' E 103°46'0 0.0
2015-Feb-27 21:32N 01°17' E 103°46'0 0.0
2015-Feb-27 20:20N 01°17' E 103°46'0 0.0
2015-Feb-27 19:32N 01°17' E 103°46'0 0.0
2015-Feb-27 17:23N 01°17' E 103°46'0 0.0
2015-Feb-27 14:11N 01°17' E 103°46'0 0.0
2015-Feb-27 13:32N 01°17' E 103°46'0 0.0
2015-Feb-27 12:14N 01°17' E 103°46'3 0.2
2015-Feb-26 19:25N 01°14' E 103°48'2 0.5
2015-Feb-26 15:32N 01°13' E 103°49'7 6.7
2015-Feb-26 14:33N 01°14' E 103°55'5 5.1
2015-Feb-26 13:32N 01°16' E 104°00'7 6.9
2015-Feb-26 12:33N 01°16' E 104°07'  
2015-Feb-23 23:33N 16°07' E 108°13'0 0.3
2015-Feb-23 22:32N 16°07' E 108°13'0 0.0
2015-Feb-23 21:32N 16°07' E 108°13'0 0.0
2015-Feb-23 20:32N 16°07' E 108°13'0 0.0
2015-Feb-23 19:32N 16°07' E 108°13'0 0.0
2015-Feb-23 18:29N 16°07' E 108°13'2 2.1
2015-Feb-23 17:33N 16°09' E 108°12'2 1.6
2015-Feb-23 16:32N 16°10' E 108°12'0 0.0
2015-Feb-23 15:32N 16°10' E 108°12'0 0.0
2015-Feb-23 14:32N 16°10' E 108°12'0 0.0
2015-Feb-23 13:32N 16°10' E 108°12'1 1.0
2015-Feb-23 12:33N 16°11' E 108°12'12 9.9
2015-Feb-23 11:22N 16°20' E 108°21'1012.8
2015-Feb-23 10:33N 16°27' E 108°28'  
2015-Feb-20 18:21N 20°11' E 110°23'8 9.9
2015-Feb-20 17:33N 20°10' E 110°14'13812.2
2015-Feb-20 06:17N 21°36' E 108°20'0 0.0
2015-Feb-19 18:32N 21°36' E 108°20'  

Dump ship's entire track history